sensor_id;sensor_type;location;lat;lon;timestamp;P1;durP1;ratioP1;P2;durP2;ratioP2
80619;SDS011;69979;53.682;-2.690;2023-06-04T00:01:58;6;;;6;;
80619;SDS011;69979;53.682;-2.690;2023-06-04T00:04:25;7;;;6;;
80619;SDS011;69979;53.682;-2.690;2023-06-04T00:06:49;6;;;6;;
80619;SDS011;69979;53.682;-2.690;2023-06-04T00:09:18;8;;;8;;
80619;SDS011;69979;53.682;-2.690;2023-06-04T00:11:42;4;;;4;;
80619;SDS011;69979;53.682;-2.690;2023-06-04T00:14:08;6;;;6;;
80619;SDS011;69979;53.682;-2.690;2023-06-04T00:16:33;6;;;6;;
80619;SDS011;69979;53.682;-2.690;2023-06-04T00:18:59;7;;;7;;
80619;SDS011;69979;53.682;-2.690;2023-06-04T00:21:24;5;;;4;;
80619;SDS011;69979;53.682;-2.690;2023-06-04T00:23:50;7;;;7;;
80619;SDS011;69979;53.682;-2.690;2023-06-04T00:26:15;7;;;7;;
80619;SDS011;69979;53.682;-2.690;2023-06-04T00:28:42;6;;;6;;
80619;SDS011;69979;53.682;-2.690;2023-06-04T00:31:06;6;;;5;;
80619;SDS011;69979;53.682;-2.690;2023-06-04T00:33:32;6;;;6;;
80619;SDS011;69979;53.682;-2.690;2023-06-04T00:35:57;6;;;6;;
80619;SDS011;69979;53.682;-2.690;2023-06-04T00:38:23;5;;;5;;
80619;SDS011;69979;53.682;-2.690;2023-06-04T00:40:48;7;;;7;;
80619;SDS011;69979;53.682;-2.690;2023-06-04T00:43:14;6;;;6;;
80619;SDS011;69979;53.682;-2.690;2023-06-04T00:45:39;6;;;6;;
80619;SDS011;69979;53.682;-2.690;2023-06-04T00:48:05;7;;;7;;
80619;SDS011;69979;53.682;-2.690;2023-06-04T00:50:30;5;;;5;;
80619;SDS011;69979;53.682;-2.690;2023-06-04T00:52:56;7;;;7;;
80619;SDS011;69979;53.682;-2.690;2023-06-04T00:55:21;9;;;9;;
80619;SDS011;69979;53.682;-2.690;2023-06-04T00:57:46;6;;;6;;
80619;SDS011;69979;53.682;-2.690;2023-06-04T01:00:12;7;;;7;;
80619;SDS011;69979;53.682;-2.690;2023-06-04T01:02:38;9;;;8;;
80619;SDS011;69979;53.682;-2.690;2023-06-04T01:05:05;7;;;7;;
80619;SDS011;69979;53.682;-2.690;2023-06-04T01:07:28;8;;;8;;
80619;SDS011;69979;53.682;-2.690;2023-06-04T01:09:54;5;;;5;;
80619;SDS011;69979;53.682;-2.690;2023-06-04T01:12:19;7;;;7;;
80619;SDS011;69979;53.682;-2.690;2023-06-04T01:14:45;6;;;6;;
80619;SDS011;69979;53.682;-2.690;2023-06-04T01:17:12;8;;;7;;
80619;SDS011;69979;53.682;-2.690;2023-06-04T01:19:44;7;;;7;;
80619;SDS011;69979;53.682;-2.690;2023-06-04T01:22:03;6;;;6;;
80619;SDS011;69979;53.682;-2.690;2023-06-04T01:24:27;10;;;9;;
80619;SDS011;69979;53.682;-2.690;2023-06-04T01:26:52;9;;;8;;
80619;SDS011;69979;53.682;-2.690;2023-06-04T01:29:18;8;;;8;;
80619;SDS011;69979;53.682;-2.690;2023-06-04T01:31:43;6;;;6;;
80619;SDS011;69979;53.682;-2.690;2023-06-04T01:34:09;7;;;7;;
80619;SDS011;69979;53.682;-2.690;2023-06-04T01:36:35;8;;;8;;
80619;SDS011;69979;53.682;-2.690;2023-06-04T01:39:00;8;;;8;;
80619;SDS011;69979;53.682;-2.690;2023-06-04T01:41:26;8;;;8;;
80619;SDS011;69979;53.682;-2.690;2023-06-04T01:43:51;6;;;6;;
80619;SDS011;69979;53.682;-2.690;2023-06-04T01:46:17;9;;;9;;
80619;SDS011;69979;53.682;-2.690;2023-06-04T01:48:42;7;;;6;;
80619;SDS011;69979;53.682;-2.690;2023-06-04T01:51:07;7;;;6;;
80619;SDS011;69979;53.682;-2.690;2023-06-04T01:53:33;7;;;7;;
80619;SDS011;69979;53.682;-2.690;2023-06-04T01:55:58;6;;;6;;
80619;SDS011;69979;53.682;-2.690;2023-06-04T01:58:24;7;;;7;;
80619;SDS011;69979;53.682;-2.690;2023-06-04T02:00:50;7;;;6;;
80619;SDS011;69979;53.682;-2.690;2023-06-04T02:03:15;6;;;5;;
80619;SDS011;69979;53.682;-2.690;2023-06-04T02:05:41;7;;;7;;
80619;SDS011;69979;53.682;-2.690;2023-06-04T02:08:06;8;;;7;;
80619;SDS011;69979;53.682;-2.690;2023-06-04T02:10:32;6;;;6;;
80619;SDS011;69979;53.682;-2.690;2023-06-04T02:12:58;6;;;6;;
80619;SDS011;69979;53.682;-2.690;2023-06-04T02:15:23;9;;;8;;
80619;SDS011;69979;53.682;-2.690;2023-06-04T02:17:49;7;;;7;;
80619;SDS011;69979;53.682;-2.690;2023-06-04T02:20:14;8;;;7;;
80619;SDS011;69979;53.682;-2.690;2023-06-04T02:22:40;7;;;7;;
80619;SDS011;69979;53.682;-2.690;2023-06-04T02:25:05;7;;;7;;
80619;SDS011;69979;53.682;-2.690;2023-06-04T02:27:31;7;;;7;;
80619;SDS011;69979;53.682;-2.690;2023-06-04T02:29:56;8;;;7;;
80619;SDS011;69979;53.682;-2.690;2023-06-04T02:32:22;7;;;7;;
80619;SDS011;69979;53.682;-2.690;2023-06-04T02:34:47;6;;;6;;
80619;SDS011;69979;53.682;-2.690;2023-06-04T02:37:13;6;;;6;;
80619;SDS011;69979;53.682;-2.690;2023-06-04T02:39:39;9;;;9;;
80619;SDS011;69979;53.682;-2.690;2023-06-04T02:42:04;9;;;8;;
80619;SDS011;69979;53.682;-2.690;2023-06-04T02:44:30;9;;;9;;
80619;SDS011;69979;53.682;-2.690;2023-06-04T02:46:55;7;;;7;;
80619;SDS011;69979;53.682;-2.690;2023-06-04T02:49:21;7;;;7;;
80619;SDS011;69979;53.682;-2.690;2023-06-04T02:51:46;9;;;9;;
80619;SDS011;69979;53.682;-2.690;2023-06-04T02:54:12;8;;;7;;
80619;SDS011;69979;53.682;-2.690;2023-06-04T02:56:37;7;;;7;;
80619;SDS011;69979;53.682;-2.690;2023-06-04T02:59:03;7;;;7;;
80619;SDS011;69979;53.682;-2.690;2023-06-04T03:01:28;7;;;7;;
80619;SDS011;69979;53.682;-2.690;2023-06-04T03:03:54;7;;;7;;
80619;SDS011;69979;53.682;-2.690;2023-06-04T03:06:20;7;;;7;;
80619;SDS011;69979;53.682;-2.690;2023-06-04T03:08:46;8;;;8;;
80619;SDS011;69979;53.682;-2.690;2023-06-04T03:11:11;9;;;8;;
80619;SDS011;69979;53.682;-2.690;2023-06-04T03:13:37;8;;;7;;
80619;SDS011;69979;53.682;-2.690;2023-06-04T03:16:02;7;;;6;;
80619;SDS011;69979;53.682;-2.690;2023-06-04T03:18:27;6;;;6;;
80619;SDS011;69979;53.682;-2.690;2023-06-04T03:20:53;11;;;9;;
80619;SDS011;69979;53.682;-2.690;2023-06-04T03:23:19;8;;;8;;
80619;SDS011;69979;53.682;-2.690;2023-06-04T03:25:44;9;;;8;;
80619;SDS011;69979;53.682;-2.690;2023-06-04T03:28:10;9;;;9;;
80619;SDS011;69979;53.682;-2.690;2023-06-04T03:30:35;12;;;9;;
80619;SDS011;69979;53.682;-2.690;2023-06-04T03:33:01;9;;;9;;
80619;SDS011;69979;53.682;-2.690;2023-06-04T03:35:26;9;;;9;;
80619;SDS011;69979;53.682;-2.690;2023-06-04T03:37:52;10;;;9;;
80619;SDS011;69979;53.682;-2.690;2023-06-04T03:40:18;9;;;8;;
80619;SDS011;69979;53.682;-2.690;2023-06-04T03:42:43;9;;;9;;
80619;SDS011;69979;53.682;-2.690;2023-06-04T03:45:09;8;;;8;;
80619;SDS011;69979;53.682;-2.690;2023-06-04T03:47:35;10;;;10;;
80619;SDS011;69979;53.682;-2.690;2023-06-04T03:50:00;8;;;8;;
80619;SDS011;69979;53.682;-2.690;2023-06-04T03:52:26;9;;;9;;
80619;SDS011;69979;53.682;-2.690;2023-06-04T03:54:51;10;;;9;;
80619;SDS011;69979;53.682;-2.690;2023-06-04T03:57:17;8;;;8;;
80619;SDS011;69979;53.682;-2.690;2023-06-04T03:59:42;9;;;8;;
80619;SDS011;69979;53.682;-2.690;2023-06-04T04:02:08;6;;;6;;
80619;SDS011;69979;53.682;-2.690;2023-06-04T04:04:33;6;;;6;;
80619;SDS011;69979;53.682;-2.690;2023-06-04T04:06:59;10;;;8;;
80619;SDS011;69979;53.682;-2.690;2023-06-04T04:09:25;9;;;8;;
80619;SDS011;69979;53.682;-2.690;2023-06-04T04:11:50;8;;;8;;
80619;SDS011;69979;53.682;-2.690;2023-06-04T04:14:16;9;;;8;;
80619;SDS011;69979;53.682;-2.690;2023-06-04T04:16:41;10;;;10;;
80619;SDS011;69979;53.682;-2.690;2023-06-04T04:19:07;8;;;8;;
80619;SDS011;69979;53.682;-2.690;2023-06-04T04:21:33;8;;;8;;
80619;SDS011;69979;53.682;-2.690;2023-06-04T04:23:58;9;;;8;;
80619;SDS011;69979;53.682;-2.690;2023-06-04T04:26:24;11;;;10;;
80619;SDS011;69979;53.682;-2.690;2023-06-04T04:28:49;11;;;10;;
80619;SDS011;69979;53.682;-2.690;2023-06-04T04:31:15;10;;;9;;
80619;SDS011;69979;53.682;-2.690;2023-06-04T04:33:40;11;;;11;;
80619;SDS011;69979;53.682;-2.690;2023-06-04T04:36:06;10;;;10;;
80619;SDS011;69979;53.682;-2.690;2023-06-04T04:38:31;9;;;9;;
80619;SDS011;69979;53.682;-2.690;2023-06-04T04:40:56;10;;;9;;
80619;SDS011;69979;53.682;-2.690;2023-06-04T04:45:48;12;;;11;;
80619;SDS011;69979;53.682;-2.690;2023-06-04T04:48:13;10;;;10;;
80619;SDS011;69979;53.682;-2.690;2023-06-04T04:50:39;13;;;12;;
80619;SDS011;69979;53.682;-2.690;2023-06-04T04:53:04;12;;;11;;
80619;SDS011;69979;53.682;-2.690;2023-06-04T04:55:30;12;;;11;;
80619;SDS011;69979;53.682;-2.690;2023-06-04T04:57:55;14;;;13;;
80619;SDS011;69979;53.682;-2.690;2023-06-04T05:00:21;13;;;13;;
80619;SDS011;69979;53.682;-2.690;2023-06-04T05:02:46;12;;;12;;
80619;SDS011;69979;53.682;-2.690;2023-06-04T05:05:12;16;;;15;;
80619;SDS011;69979;53.682;-2.690;2023-06-04T05:07:38;12;;;12;;
80619;SDS011;69979;53.682;-2.690;2023-06-04T05:10:04;13;;;13;;
80619;SDS011;69979;53.682;-2.690;2023-06-04T05:12:29;18;;;18;;
80619;SDS011;69979;53.682;-2.690;2023-06-04T05:14:55;15;;;15;;
80619;SDS011;69979;53.682;-2.690;2023-06-04T05:17:20;16;;;15;;
80619;SDS011;69979;53.682;-2.690;2023-06-04T05:19:45;12;;;12;;
80619;SDS011;69979;53.682;-2.690;2023-06-04T05:22:11;15;;;15;;
80619;SDS011;69979;53.682;-2.690;2023-06-04T05:24:36;13;;;13;;
80619;SDS011;69979;53.682;-2.690;2023-06-04T05:27:02;14;;;14;;
80619;SDS011;69979;53.682;-2.690;2023-06-04T05:29:27;16;;;16;;
80619;SDS011;69979;53.682;-2.690;2023-06-04T05:31:52;12;;;12;;
80619;SDS011;69979;53.682;-2.690;2023-06-04T05:34:18;12;;;12;;
80619;SDS011;69979;53.682;-2.690;2023-06-04T05:36:43;13;;;13;;
80619;SDS011;69979;53.682;-2.690;2023-06-04T05:39:09;11;;;10;;
80619;SDS011;69979;53.682;-2.690;2023-06-04T05:41:34;11;;;11;;
80619;SDS011;69979;53.682;-2.690;2023-06-04T05:44:00;10;;;10;;
80619;SDS011;69979;53.682;-2.690;2023-06-04T05:46:26;11;;;11;;
80619;SDS011;69979;53.682;-2.690;2023-06-04T05:48:53;10;;;9;;
80619;SDS011;69979;53.682;-2.690;2023-06-04T05:51:17;10;;;10;;
80619;SDS011;69979;53.682;-2.690;2023-06-04T05:53:42;10;;;10;;
80619;SDS011;69979;53.682;-2.690;2023-06-04T05:56:08;9;;;9;;
80619;SDS011;69979;53.682;-2.690;2023-06-04T05:58:33;8;;;8;;
80619;SDS011;69979;53.682;-2.690;2023-06-04T06:00:59;9;;;9;;
80619;SDS011;69979;53.682;-2.690;2023-06-04T06:03:25;10;;;9;;
80619;SDS011;69979;53.682;-2.690;2023-06-04T06:05:51;10;;;9;;
80619;SDS011;69979;53.682;-2.690;2023-06-04T06:08:16;8;;;8;;
80619;SDS011;69979;53.682;-2.690;2023-06-04T06:10:41;7;;;7;;
80619;SDS011;69979;53.682;-2.690;2023-06-04T06:13:07;11;;;8;;
80619;SDS011;69979;53.682;-2.690;2023-06-04T06:15:32;9;;;9;;
80619;SDS011;69979;53.682;-2.690;2023-06-04T06:17:58;9;;;8;;
80619;SDS011;69979;53.682;-2.690;2023-06-04T06:20:23;9;;;9;;
80619;SDS011;69979;53.682;-2.690;2023-06-04T06:22:49;6;;;6;;
80619;SDS011;69979;53.682;-2.690;2023-06-04T06:25:14;8;;;7;;
80619;SDS011;69979;53.682;-2.690;2023-06-04T06:27:40;6;;;6;;
80619;SDS011;69979;53.682;-2.690;2023-06-04T06:30:06;8;;;7;;
80619;SDS011;69979;53.682;-2.690;2023-06-04T06:32:31;8;;;8;;
80619;SDS011;69979;53.682;-2.690;2023-06-04T06:34:57;8;;;7;;
80619;SDS011;69979;53.682;-2.690;2023-06-04T06:37:23;8;;;7;;
80619;SDS011;69979;53.682;-2.690;2023-06-04T06:39:48;8;;;8;;
80619;SDS011;69979;53.682;-2.690;2023-06-04T06:42:13;8;;;8;;
80619;SDS011;69979;53.682;-2.690;2023-06-04T06:44:39;9;;;8;;
80619;SDS011;69979;53.682;-2.690;2023-06-04T06:47:05;7;;;7;;
80619;SDS011;69979;53.682;-2.690;2023-06-04T06:49:30;7;;;7;;
80619;SDS011;69979;53.682;-2.690;2023-06-04T06:51:56;9;;;8;;
80619;SDS011;69979;53.682;-2.690;2023-06-04T06:54:21;7;;;7;;
80619;SDS011;69979;53.682;-2.690;2023-06-04T06:56:47;6;;;6;;
80619;SDS011;69979;53.682;-2.690;2023-06-04T06:59:12;7;;;7;;
80619;SDS011;69979;53.682;-2.690;2023-06-04T07:01:38;6;;;6;;
80619;SDS011;69979;53.682;-2.690;2023-06-04T07:04:04;5;;;4;;
80619;SDS011;69979;53.682;-2.690;2023-06-04T07:06:29;6;;;6;;
80619;SDS011;69979;53.682;-2.690;2023-06-04T07:08:54;6;;;6;;
80619;SDS011;69979;53.682;-2.690;2023-06-04T07:11:20;6;;;6;;
80619;SDS011;69979;53.682;-2.690;2023-06-04T07:13:45;6;;;5;;
80619;SDS011;69979;53.682;-2.690;2023-06-04T07:16:11;8;;;6;;
80619;SDS011;69979;53.682;-2.690;2023-06-04T07:18:36;5;;;5;;
80619;SDS011;69979;53.682;-2.690;2023-06-04T07:21:01;6;;;5;;
80619;SDS011;69979;53.682;-2.690;2023-06-04T07:23:27;6;;;6;;
80619;SDS011;69979;53.682;-2.690;2023-06-04T07:25:53;7;;;6;;
80619;SDS011;69979;53.682;-2.690;2023-06-04T07:28:18;6;;;6;;
80619;SDS011;69979;53.682;-2.690;2023-06-04T07:30:44;5;;;4;;
80619;SDS011;69979;53.682;-2.690;2023-06-04T07:33:09;4;;;4;;
80619;SDS011;69979;53.682;-2.690;2023-06-04T07:35:35;7;;;6;;
80619;SDS011;69979;53.682;-2.690;2023-06-04T07:38:00;5;;;5;;
80619;SDS011;69979;53.682;-2.690;2023-06-04T07:40:26;5;;;4;;
80619;SDS011;69979;53.682;-2.690;2023-06-04T07:42:51;5;;;4;;
80619;SDS011;69979;53.682;-2.690;2023-06-04T07:45:17;6;;;6;;
80619;SDS011;69979;53.682;-2.690;2023-06-04T07:47:43;4;;;4;;
80619;SDS011;69979;53.682;-2.690;2023-06-04T07:50:08;5;;;5;;
80619;SDS011;69979;53.682;-2.690;2023-06-04T07:52:33;3;;;3;;
80619;SDS011;69979;53.682;-2.690;2023-06-04T07:54:59;6;;;5;;
80619;SDS011;69979;53.682;-2.690;2023-06-04T07:57:24;6;;;5;;
80619;SDS011;69979;53.682;-2.690;2023-06-04T07:59:50;5;;;5;;
80619;SDS011;69979;53.682;-2.690;2023-06-04T08:02:15;7;;;6;;
80619;SDS011;69979;53.682;-2.690;2023-06-04T08:04:41;5;;;5;;
80619;SDS011;69979;53.682;-2.690;2023-06-04T08:07:06;6;;;6;;
80619;SDS011;69979;53.682;-2.690;2023-06-04T08:09:32;5;;;5;;
80619;SDS011;69979;53.682;-2.690;2023-06-04T08:11:57;6;;;5;;
80619;SDS011;69979;53.682;-2.690;2023-06-04T08:14:23;7;;;6;;
80619;SDS011;69979;53.682;-2.690;2023-06-04T08:16:48;6;;;5;;
80619;SDS011;69979;53.682;-2.690;2023-06-04T08:19:14;5;;;4;;
80619;SDS011;69979;53.682;-2.690;2023-06-04T08:21:39;6;;;5;;
80619;SDS011;69979;53.682;-2.690;2023-06-04T08:24:04;5;;;5;;
80619;SDS011;69979;53.682;-2.690;2023-06-04T08:26:30;4;;;4;;
80619;SDS011;69979;53.682;-2.690;2023-06-04T08:28:55;4;;;4;;
80619;SDS011;69979;53.682;-2.690;2023-06-04T08:31:21;5;;;5;;
80619;SDS011;69979;53.682;-2.690;2023-06-04T08:33:46;4;;;3;;
80619;SDS011;69979;53.682;-2.690;2023-06-04T08:36:12;6;;;6;;
80619;SDS011;69979;53.682;-2.690;2023-06-04T08:38:37;4;;;4;;
80619;SDS011;69979;53.682;-2.690;2023-06-04T08:41:05;4;;;4;;
80619;SDS011;69979;53.682;-2.690;2023-06-04T08:43:28;5;;;5;;
80619;SDS011;69979;53.682;-2.690;2023-06-04T08:45:54;5;;;5;;
80619;SDS011;69979;53.682;-2.690;2023-06-04T08:48:19;6;;;5;;
80619;SDS011;69979;53.682;-2.690;2023-06-04T08:50:45;4;;;4;;
80619;SDS011;69979;53.682;-2.690;2023-06-04T08:53:10;5;;;5;;
80619;SDS011;69979;53.682;-2.690;2023-06-04T08:55:35;4;;;4;;
80619;SDS011;69979;53.682;-2.690;2023-06-04T08:58:01;4;;;4;;
80619;SDS011;69979;53.682;-2.690;2023-06-04T09:00:26;5;;;5;;
80619;SDS011;69979;53.682;-2.690;2023-06-04T09:02:52;4;;;4;;
80619;SDS011;69979;53.682;-2.690;2023-06-04T09:05:18;5;;;5;;
80619;SDS011;69979;53.682;-2.690;2023-06-04T09:07:42;4;;;3;;
80619;SDS011;69979;53.682;-2.690;2023-06-04T09:10:09;6;;;5;;
80619;SDS011;69979;53.682;-2.690;2023-06-04T09:12:35;4;;;4;;
80619;SDS011;69979;53.682;-2.690;2023-06-04T09:14:59;5;;;5;;
80619;SDS011;69979;53.682;-2.690;2023-06-04T09:17:24;4;;;4;;
80619;SDS011;69979;53.682;-2.690;2023-06-04T09:19:50;4;;;4;;
80619;SDS011;69979;53.682;-2.690;2023-06-04T09:22:15;4;;;4;;
80619;SDS011;69979;53.682;-2.690;2023-06-04T09:24:41;6;;;6;;
80619;SDS011;69979;53.682;-2.690;2023-06-04T09:27:09;6;;;5;;
80619;SDS011;69979;53.682;-2.690;2023-06-04T09:29:31;4;;;4;;
80619;SDS011;69979;53.682;-2.690;2023-06-04T09:31:58;5;;;4;;
80619;SDS011;69979;53.682;-2.690;2023-06-04T09:34:26;2;;;2;;
80619;SDS011;69979;53.682;-2.690;2023-06-04T09:36:47;5;;;5;;
80619;SDS011;69979;53.682;-2.690;2023-06-04T09:39:16;3;;;3;;
80619;SDS011;69979;53.682;-2.690;2023-06-04T09:41:38;5;;;5;;
80619;SDS011;69979;53.682;-2.690;2023-06-04T09:44:04;4;;;4;;
80619;SDS011;69979;53.682;-2.690;2023-06-04T09:46:29;6;;;6;;
80619;SDS011;69979;53.682;-2.690;2023-06-04T09:48:59;4;;;3;;
80619;SDS011;69979;53.682;-2.690;2023-06-04T09:51:20;5;;;4;;
80619;SDS011;69979;53.682;-2.690;2023-06-04T09:56:11;4;;;3;;
80619;SDS011;69979;53.682;-2.690;2023-06-04T09:58:37;6;;;5;;
80619;SDS011;69979;53.682;-2.690;2023-06-04T10:01:04;6;;;6;;
80619;SDS011;69979;53.682;-2.690;2023-06-04T10:03:29;5;;;5;;
80619;SDS011;69979;53.682;-2.690;2023-06-04T10:05:52;4;;;4;;
80619;SDS011;69979;53.682;-2.690;2023-06-04T10:08:18;5;;;5;;
80619;SDS011;69979;53.682;-2.690;2023-06-04T10:10:43;5;;;5;;
80619;SDS011;69979;53.682;-2.690;2023-06-04T10:13:09;6;;;5;;
80619;SDS011;69979;53.682;-2.690;2023-06-04T10:15:34;4;;;4;;
80619;SDS011;69979;53.682;-2.690;2023-06-04T10:17:59;4;;;4;;
80619;SDS011;69979;53.682;-2.690;2023-06-04T10:20:25;5;;;4;;
80619;SDS011;69979;53.682;-2.690;2023-06-04T10:22:50;4;;;4;;
80619;SDS011;69979;53.682;-2.690;2023-06-04T10:25:16;4;;;3;;
80619;SDS011;69979;53.682;-2.690;2023-06-04T10:27:42;3;;;3;;
80619;SDS011;69979;53.682;-2.690;2023-06-04T10:30:07;5;;;5;;
80619;SDS011;69979;53.682;-2.690;2023-06-04T10:32:33;2;;;2;;
80619;SDS011;69979;53.682;-2.690;2023-06-04T10:34:58;4;;;4;;
80619;SDS011;69979;53.682;-2.690;2023-06-04T10:37:24;3;;;3;;
80619;SDS011;69979;53.682;-2.690;2023-06-04T10:39:50;4;;;4;;
80619;SDS011;69979;53.682;-2.690;2023-06-04T10:42:14;5;;;5;;
80619;SDS011;69979;53.682;-2.690;2023-06-04T10:44:43;6;;;5;;
80619;SDS011;69979;53.682;-2.690;2023-06-04T10:47:05;6;;;5;;
80619;SDS011;69979;53.682;-2.690;2023-06-04T10:49:30;3;;;3;;
80619;SDS011;69979;53.682;-2.690;2023-06-04T10:51:55;5;;;4;;
80619;SDS011;69979;53.682;-2.690;2023-06-04T10:54:22;2;;;2;;
80619;SDS011;69979;53.682;-2.690;2023-06-04T10:56:46;3;;;3;;
80619;SDS011;69979;53.682;-2.690;2023-06-04T10:59:13;3;;;3;;
80619;SDS011;69979;53.682;-2.690;2023-06-04T11:01:37;4;;;4;;
80619;SDS011;69979;53.682;-2.690;2023-06-04T11:04:02;2;;;2;;
80619;SDS011;69979;53.682;-2.690;2023-06-04T11:06:27;3;;;3;;
80619;SDS011;69979;53.682;-2.690;2023-06-04T11:11:18;5;;;5;;
80619;SDS011;69979;53.682;-2.690;2023-06-04T11:13:44;5;;;4;;
80619;SDS011;69979;53.682;-2.690;2023-06-04T11:16:14;4;;;4;;
80619;SDS011;69979;53.682;-2.690;2023-06-04T11:18:34;5;;;5;;
80619;SDS011;69979;53.682;-2.690;2023-06-04T11:21:00;5;;;4;;
80619;SDS011;69979;53.682;-2.690;2023-06-04T11:23:25;5;;;5;;
80619;SDS011;69979;53.682;-2.690;2023-06-04T11:25:52;5;;;4;;
80619;SDS011;69979;53.682;-2.690;2023-06-04T11:28:16;4;;;4;;
80619;SDS011;69979;53.682;-2.690;2023-06-04T11:30:41;6;;;4;;
80619;SDS011;69979;53.682;-2.690;2023-06-04T11:33:07;5;;;5;;
80619;SDS011;69979;53.682;-2.690;2023-06-04T11:37:57;6;;;6;;
80619;SDS011;69979;53.682;-2.690;2023-06-04T11:40:23;5;;;5;;
80619;SDS011;69979;53.682;-2.690;2023-06-04T11:42:48;2;;;2;;
80619;SDS011;69979;53.682;-2.690;2023-06-04T11:45:14;5;;;5;;
80619;SDS011;69979;53.682;-2.690;2023-06-04T11:47:39;5;;;5;;
80619;SDS011;69979;53.682;-2.690;2023-06-04T11:50:05;5;;;5;;
80619;SDS011;69979;53.682;-2.690;2023-06-04T11:52:29;4;;;4;;
80619;SDS011;69979;53.682;-2.690;2023-06-04T11:54:55;3;;;3;;
80619;SDS011;69979;53.682;-2.690;2023-06-04T11:57:20;5;;;5;;
80619;SDS011;69979;53.682;-2.690;2023-06-04T11:59:46;5;;;5;;
80619;SDS011;69979;53.682;-2.690;2023-06-04T12:02:11;5;;;4;;
80619;SDS011;69979;53.682;-2.690;2023-06-04T12:04:36;5;;;5;;
80619;SDS011;69979;53.682;-2.690;2023-06-04T12:07:02;4;;;4;;
80619;SDS011;69979;53.682;-2.690;2023-06-04T12:09:28;5;;;5;;
80619;SDS011;69979;53.682;-2.690;2023-06-04T12:11:57;5;;;5;;
80619;SDS011;69979;53.682;-2.690;2023-06-04T12:14:18;4;;;4;;
80619;SDS011;69979;53.682;-2.690;2023-06-04T12:16:43;5;;;3;;
80619;SDS011;69979;53.682;-2.690;2023-06-04T12:19:09;4;;;4;;
80619;SDS011;69979;53.682;-2.690;2023-06-04T12:21:34;3;;;3;;
80619;SDS011;69979;53.682;-2.690;2023-06-04T12:26:24;5;;;5;;
80619;SDS011;69979;53.682;-2.690;2023-06-04T12:31:15;6;;;6;;
80619;SDS011;69979;53.682;-2.690;2023-06-04T12:33:40;5;;;5;;
80619;SDS011;69979;53.682;-2.690;2023-06-04T12:36:05;6;;;6;;
80619;SDS011;69979;53.682;-2.690;2023-06-04T12:38:31;5;;;5;;
80619;SDS011;69979;53.682;-2.690;2023-06-04T12:40:56;5;;;5;;
80619;SDS011;69979;53.682;-2.690;2023-06-04T12:43:21;5;;;5;;
80619;SDS011;69979;53.682;-2.690;2023-06-04T12:45:47;6;;;5;;
80619;SDS011;69979;53.682;-2.690;2023-06-04T12:48:12;5;;;4;;
80619;SDS011;69979;53.682;-2.690;2023-06-04T12:50:37;5;;;5;;
80619;SDS011;69979;53.682;-2.690;2023-06-04T12:53:03;4;;;4;;
80619;SDS011;69979;53.682;-2.690;2023-06-04T12:55:28;4;;;4;;
80619;SDS011;69979;53.682;-2.690;2023-06-04T12:57:53;6;;;6;;
80619;SDS011;69979;53.682;-2.690;2023-06-04T13:00:19;4;;;4;;
80619;SDS011;69979;53.682;-2.690;2023-06-04T13:02:44;6;;;5;;
80619;SDS011;69979;53.682;-2.690;2023-06-04T13:05:10;5;;;5;;
80619;SDS011;69979;53.682;-2.690;2023-06-04T13:07:35;7;;;6;;
80619;SDS011;69979;53.682;-2.690;2023-06-04T13:10:00;4;;;4;;
80619;SDS011;69979;53.682;-2.690;2023-06-04T13:12:26;5;;;5;;
80619;SDS011;69979;53.682;-2.690;2023-06-04T13:14:51;5;;;5;;
80619;SDS011;69979;53.682;-2.690;2023-06-04T13:17:16;6;;;5;;
80619;SDS011;69979;53.682;-2.690;2023-06-04T13:19:42;8;;;7;;
80619;SDS011;69979;53.682;-2.690;2023-06-04T13:22:07;7;;;7;;
80619;SDS011;69979;53.682;-2.690;2023-06-04T13:24:32;4;;;4;;
80619;SDS011;69979;53.682;-2.690;2023-06-04T13:26:58;6;;;5;;
80619;SDS011;69979;53.682;-2.690;2023-06-04T13:29:23;6;;;6;;
80619;SDS011;69979;53.682;-2.690;2023-06-04T13:31:48;6;;;6;;
80619;SDS011;69979;53.682;-2.690;2023-06-04T13:34:14;6;;;6;;
80619;SDS011;69979;53.682;-2.690;2023-06-04T13:36:39;11;;;10;;
80619;SDS011;69979;53.682;-2.690;2023-06-04T13:39:05;10;;;9;;
80619;SDS011;69979;53.682;-2.690;2023-06-04T13:41:30;5;;;5;;
80619;SDS011;69979;53.682;-2.690;2023-06-04T13:43:55;8;;;7;;
80619;SDS011;69979;53.682;-2.690;2023-06-04T13:46:21;7;;;6;;
80619;SDS011;69979;53.682;-2.690;2023-06-04T13:48:46;6;;;6;;
80619;SDS011;69979;53.682;-2.690;2023-06-04T13:51:12;6;;;5;;
80619;SDS011;69979;53.682;-2.690;2023-06-04T13:53:37;6;;;6;;
80619;SDS011;69979;53.682;-2.690;2023-06-04T13:56:02;5;;;5;;
80619;SDS011;69979;53.682;-2.690;2023-06-04T13:58:27;7;;;6;;
80619;SDS011;69979;53.682;-2.690;2023-06-04T14:00:53;5;;;5;;
80619;SDS011;69979;53.682;-2.690;2023-06-04T14:03:18;7;;;7;;
80619;SDS011;69979;53.682;-2.690;2023-06-04T14:05:43;6;;;5;;
80619;SDS011;69979;53.682;-2.690;2023-06-04T14:08:09;7;;;6;;
80619;SDS011;69979;53.682;-2.690;2023-06-04T14:10:34;5;;;5;;
80619;SDS011;69979;53.682;-2.690;2023-06-04T14:12:59;8;;;8;;
80619;SDS011;69979;53.682;-2.690;2023-06-04T14:15:25;7;;;7;;
80619;SDS011;69979;53.682;-2.690;2023-06-04T14:17:50;5;;;5;;
80619;SDS011;69979;53.682;-2.690;2023-06-04T14:20:16;7;;;7;;
80619;SDS011;69979;53.682;-2.690;2023-06-04T14:22:41;4;;;3;;
80619;SDS011;69979;53.682;-2.690;2023-06-04T14:25:06;6;;;6;;
80619;SDS011;69979;53.682;-2.690;2023-06-04T14:27:31;6;;;6;;
80619;SDS011;69979;53.682;-2.690;2023-06-04T14:29:57;5;;;5;;
80619;SDS011;69979;53.682;-2.690;2023-06-04T14:32:22;7;;;7;;
80619;SDS011;69979;53.682;-2.690;2023-06-04T14:34:47;6;;;6;;
80619;SDS011;69979;53.682;-2.690;2023-06-04T14:37:13;5;;;5;;
80619;SDS011;69979;53.682;-2.690;2023-06-04T14:39:38;7;;;6;;
80619;SDS011;69979;53.682;-2.690;2023-06-04T14:42:04;5;;;5;;
80619;SDS011;69979;53.682;-2.690;2023-06-04T14:44:29;6;;;6;;
80619;SDS011;69979;53.682;-2.690;2023-06-04T14:46:54;5;;;5;;
80619;SDS011;69979;53.682;-2.690;2023-06-04T14:49:19;5;;;5;;
80619;SDS011;69979;53.682;-2.690;2023-06-04T14:51:45;5;;;5;;
80619;SDS011;69979;53.682;-2.690;2023-06-04T14:54:10;5;;;5;;
80619;SDS011;69979;53.682;-2.690;2023-06-04T14:56:36;5;;;5;;
80619;SDS011;69979;53.682;-2.690;2023-06-04T14:59:01;6;;;5;;
80619;SDS011;69979;53.682;-2.690;2023-06-04T15:01:26;6;;;6;;
80619;SDS011;69979;53.682;-2.690;2023-06-04T15:03:52;6;;;6;;
80619;SDS011;69979;53.682;-2.690;2023-06-04T15:06:17;6;;;6;;
80619;SDS011;69979;53.682;-2.690;2023-06-04T15:08:42;6;;;5;;
80619;SDS011;69979;53.682;-2.690;2023-06-04T15:11:10;5;;;5;;
80619;SDS011;69979;53.682;-2.690;2023-06-04T15:13:33;6;;;6;;
80619;SDS011;69979;53.682;-2.690;2023-06-04T15:15:58;9;;;7;;
80619;SDS011;69979;53.682;-2.690;2023-06-04T15:18:24;8;;;8;;
80619;SDS011;69979;53.682;-2.690;2023-06-04T15:20:49;5;;;5;;
80619;SDS011;69979;53.682;-2.690;2023-06-04T15:23:14;7;;;7;;
80619;SDS011;69979;53.682;-2.690;2023-06-04T15:25:39;6;;;6;;
80619;SDS011;69979;53.682;-2.690;2023-06-04T15:28:05;8;;;7;;
80619;SDS011;69979;53.682;-2.690;2023-06-04T15:30:30;7;;;7;;
80619;SDS011;69979;53.682;-2.690;2023-06-04T15:32:55;7;;;7;;
80619;SDS011;69979;53.682;-2.690;2023-06-04T15:35:21;8;;;7;;
80619;SDS011;69979;53.682;-2.690;2023-06-04T15:37:46;8;;;7;;
80619;SDS011;69979;53.682;-2.690;2023-06-04T15:40:12;14;;;13;;
80619;SDS011;69979;53.682;-2.690;2023-06-04T15:42:37;6;;;6;;
80619;SDS011;69979;53.682;-2.690;2023-06-04T15:45:02;9;;;9;;
80619;SDS011;69979;53.682;-2.690;2023-06-04T15:47:27;9;;;9;;
80619;SDS011;69979;53.682;-2.690;2023-06-04T15:49:53;11;;;11;;
80619;SDS011;69979;53.682;-2.690;2023-06-04T15:52:18;9;;;9;;
80619;SDS011;69979;53.682;-2.690;2023-06-04T15:54:44;6;;;6;;
80619;SDS011;69979;53.682;-2.690;2023-06-04T15:57:09;7;;;7;;
80619;SDS011;69979;53.682;-2.690;2023-06-04T15:59:34;8;;;7;;